Aviation Digital Data Service (ADDS)

Output produced by METARs form (2216 UTC 20 October 2018)
found at http://www.aviationweather.gov/metar/data/
 
METAR text: KSET 202154Z AUTO 33020G30KT 10SM CLR 16/M02 A3015 RMK AO2 PK WND 32036/2058 SLP210 T01561017
Conditions at: KSET (ST. CHARLES , MO, US) observed 2154 UTC 20 October 2018
Temperature: 15.6°C (60°F)
Dewpoint: -1.7°C (29°F) [RH = 30%]
Pressure (altimeter): 30.15 inches Hg (1021.1 mb)
[Sea-level pressure: 1021.0 mb]
Winds: from the NNW (330 degrees) at 23 MPH (20 knots; 10.3 m/s)
gusting to 34 MPH (30 knots; 15.4 m/s)
Visibility: 10 or more miles (16+ km)
Ceiling: at least 12,000 feet AGL
Clouds: sky clear below 12,000 feet AGL
Weather: automated observation with no human augmentation;
there may or may not be significant weather present at this time